createdAt,value
2022-12-26T00:04:00.426Z,100
2022-12-26T00:10:33.447Z,100
2022-12-26T00:16:23.095Z,100
2022-12-26T00:22:14.010Z,100
2022-12-26T00:28:04.470Z,100
2022-12-26T00:33:54.637Z,100
2022-12-26T00:39:45.007Z,100
2022-12-26T00:45:35.579Z,100
2022-12-26T00:51:25.556Z,100
2022-12-26T00:57:16.271Z,100
2022-12-26T01:03:06.538Z,99.5
2022-12-26T01:08:56.624Z,99.3
2022-12-26T01:14:47.522Z,98.9
2022-12-26T01:20:37.366Z,98
2022-12-26T01:26:27.636Z,98.2
2022-12-26T01:32:17.846Z,98.9
2022-12-26T01:38:08.165Z,99.6
2022-12-26T01:43:58.431Z,100
2022-12-26T01:49:48.829Z,100
2022-12-26T01:55:39.876Z,100
2022-12-26T02:01:30.328Z,100
2022-12-26T02:07:21.803Z,100
2022-12-26T02:13:13.936Z,100
2022-12-26T02:19:04.718Z,100
2022-12-26T02:24:55.511Z,100
2022-12-26T02:30:46.193Z,100
2022-12-26T02:36:36.842Z,100
2022-12-26T02:42:27.480Z,100
2022-12-26T02:48:17.921Z,99.8
2022-12-26T02:54:08.569Z,99
2022-12-26T02:59:59.092Z,99
2022-12-26T03:05:49.194Z,98.1
2022-12-26T03:11:39.541Z,96.3
2022-12-26T03:17:30.483Z,95.9
2022-12-26T03:23:20.723Z,95
2022-12-26T03:29:18.783Z,95.9
2022-12-26T03:35:09.590Z,95.8
2022-12-26T03:41:00.127Z,96.3
2022-12-26T03:46:51.070Z,96.6
2022-12-26T03:52:42.730Z,96.5
2022-12-26T03:58:33.411Z,95.8
2022-12-26T17:52:17.052Z,87.4
2022-12-26T17:58:13.953Z,88.9
2022-12-26T18:04:13.000Z,84.4
2022-12-26T18:10:29.185Z,81.5
2022-12-26T18:16:19.321Z,80
2022-12-26T18:22:11.174Z,79.3
2022-12-26T18:28:02.754Z,80.6
2022-12-26T18:33:53.811Z,79.8
2022-12-26T18:39:46.543Z,81.1
2022-12-26T18:45:37.707Z,81.8
2022-12-26T18:51:29.527Z,82.8
2022-12-26T18:57:22.100Z,82.9
2022-12-26T19:03:13.702Z,83.7
2022-12-26T19:09:04.078Z,83.9
2022-12-26T19:14:55.293Z,83.9
2022-12-26T19:20:46.789Z,84.3
2022-12-26T19:26:37.967Z,84.3
2022-12-26T19:32:28.756Z,85.1
2022-12-26T19:38:21.722Z,84.9
2022-12-26T19:44:13.733Z,84.8
2022-12-26T19:50:06.300Z,85.3
2022-12-26T19:55:58.990Z,84.5
2022-12-26T20:01:50.825Z,83
2022-12-26T20:07:42.693Z,82.2
2022-12-26T20:13:34.777Z,82.1
2022-12-26T20:19:26.571Z,81.1
2022-12-26T20:25:18.971Z,80.5
2022-12-26T20:31:15.438Z,79.8
2022-12-26T20:37:17.829Z,80.4
2022-12-26T20:43:15.851Z,80.2
2022-12-26T20:49:11.581Z,80.6
2022-12-26T20:55:04.704Z,82.2
2022-12-26T21:01:02.875Z,82.6
2022-12-26T21:06:54.829Z,82.1
2022-12-26T21:12:47.924Z,82.3
2022-12-26T21:18:43.218Z,81.9
2022-12-26T21:24:35.847Z,82.6
2022-12-26T21:30:26.673Z,82.7
2022-12-26T21:36:17.484Z,83.4
2022-12-26T21:42:08.057Z,83.3
2022-12-26T21:47:57.799Z,84.1
2022-12-26T21:53:50.582Z,84.2
2022-12-26T21:59:41.967Z,83.9
2022-12-26T22:05:34.030Z,84
2022-12-26T22:11:24.458Z,84.3
2022-12-26T22:17:15.402Z,84.1
2022-12-26T22:23:05.652Z,83.9
2022-12-26T22:28:55.028Z,84.3
2022-12-26T22:34:45.012Z,85
2022-12-26T22:40:34.972Z,85
2022-12-26T22:46:24.533Z,85.3
2022-12-26T22:52:17.842Z,85.7
2022-12-26T22:58:07.785Z,85.1
2022-12-26T23:03:58.011Z,86.7
2022-12-26T23:09:47.009Z,85.8
2022-12-26T23:15:37.107Z,85.7
2022-12-26T23:21:27.612Z,86.9
2022-12-26T23:27:17.903Z,86.5
2022-12-26T23:33:06.233Z,86.5
2022-12-26T23:38:56.572Z,87.4
2022-12-26T23:44:48.086Z,87.9
2022-12-26T23:50:38.907Z,90
2022-12-26T23:56:31.338Z,89.6
